Tiempo atmosférico en la estación meteorológica de Cenicero, La Rioja (429 m.)



Fecha
DESCASC
Temp. máxima en grados centígrados (hora)
DESCASC
Temp. mínima en grados centígrados (hora)
DESCASC
Temp. media en grados centígrados
DESCASC
Racha de viento máxima en m/sg (hora)
DESCASC
Velocidad máxima media en intervalos de 10 minutos(hora)
DESCASC
Precipitaciones diarias en mm
DESCASC
Precipitaciones de 00:00 a 06:00 en mm
DESCASC
Precipitaciones de 06:00 a 12:00 en mm
DESCASC
Precipitaciones de 12:00 a 18:00 en mm
DESCASC
Precipitaciones de 18:00 a 24:00 en mm
DESCASC
23-06-2019 32.8 (18:50) 19.2 (08:10) 26 6.94 (22:50) 3.33 (07:20) 0 0 0 0 0
22-06-2019 28.9 (18:30) 9.8 (06:50) 19.3 7.22 (16:10) 3.89 (16:10) 0 0 0 0 0
21-06-2019 22.4 (17:00) 13.6 (06:30) 18 6.94 (05:10) 3.33 (05:10) 10.4 10.4 0 0 0
20-06-2019 22.3 (14:20) 15.3 (00:00) 18.8 6.94 (17:40) 3.33 (03:50) 11.8 0 0 0 11.8
19-06-2019 -- (--) -- (--) -- -- (--) -- (--) -- -- -- -- 0
18-06-2019 -- (--) -- (--) -- -- (--) -- (--) -- 0 0 0 --
17-06-2019 32.5 (17:40) 12.2 (00:00) 22.3 6.39 (16:00) 3.33 (15:50) 0 0 0 0 0
16-06-2019 29.1 (17:30) 9 (00:00) 19.1 8.61 (13:40) 5 (13:40) 0 0 0 0 0
15-06-2019 24.2 (16:50) 11.4 (00:00) 17.8 7.78 (15:40) 3.61 (00:20) 0 0 0 0 0
14-06-2019 27.3 (17:00) 11.7 (00:00) 19.5 8.89 (21:50) 4.44 (22:20) 0 0 0 0 0
13-06-2019 30.6 (18:30) 7.5 (00:00) 19.1 11.11 (15:10) 6.67 (11:30) 0 0 0 0 0
12-06-2019 22.3 (18:10) 7.5 (00:00) 14.9 6.11 (17:10) 3.06 (17:00) 0 0 0 0 0
11-06-2019 16.1 (16:20) 9.5 (00:00) 12.8 10.28 (17:20) 6.67 (17:20) 4.6 3.6 0.2 0.8 0
10-06-2019 19.4 (17:10) 11.6 (00:00) 15.5 8.89 (19:00) 4.17 (17:40) 0.2 0 0 0 0.2
09-06-2019 25.6 (15:20) 11.6 (00:00) 18.6 9.72 (18:20) 5 (18:20) 0 0 0 0 0
08-06-2019 25.4 (18:10) 7.1 (00:00) 16.2 11.11 (18:10) 5 (18:30) 0.2 0 0 0 0.2
07-06-2019 21.3 (17:50) 10.3 (00:00) 15.8 14.17 (10:50) 8.33 (03:30) 0.6 0.6 0 0 0
06-06-2019 26.3 (18:10) 9.6 (00:00) 17.9 11.39 (16:10) 5.83 (14:50) 0 0 0 0 0
05-06-2019 17.1 (14:40) 10.3 (00:00) 13.7 13.06 (14:50) 6.39 (15:00) 12.2 1.4 10.2 0.4 0.2
04-06-2019 31.1 (16:30) 14.9 (00:00) 23 11.39 (18:00) 6.39 (17:20) 0 0 0 0 0
03-06-2019 31.3 (18:00) 16.2 (00:00) 23.8 7.78 (20:10) 4.44 (20:10) 0 0 0 0 0
02-06-2019 32.1 (17:10) 17.5 (00:00) 24.8 7.22 (23:30) 3.61 (22:30) 0 0 0 0 0
01-06-2019 31.8 (18:00) 11.3 (00:00) 21.5 7.78 (11:30) 4.72 (12:30) 0 0 0 0 0
31-05-2019 30.7 (18:00) 11.2 (00:00) 21 7.22 (16:40) 3.61 (17:30) 0 0 0 0 0
30-05-2019 29.5 (17:20) 7.6 (00:00) 18.5 6.39 (20:30) 3.33 (01:20) 0 0 0 0 0
29-05-2019 19.5 (17:30) 10.8 (00:00) 15.2 8.61 (17:10) 4.72 (16:10) 0 0 0 0 0
28-05-2019 16.1 (13:50) 10.1 (00:00) 13.1 11.11 (15:20) 6.11 (15:20) 0 0 0 0 0

Gráficas

Temp. máximas Temp. mínimas Temp. medias Precipitaciones Rachas de viento máximas Velocidades máximas media en intervalos de 10 minutos

Datos horarios

Fecha y hora oficial Temperatura (ºC) Velocidad del viento (km/h) Dirección del viento Racha (km/h) Dirección de racha Precipitación (mm) Presión (hPa) Tendencia (hPa) Humedad (%)
2019-06-26 23:00:00 31.4 22 Este 59 Este 0 -- -- 30
2019-06-26 22:00:00 32.8 23 Este 43 Este 0 -- -- 29
2019-06-26 21:00:00 33.9 23 Este 45 Este 0 -- -- 29
2019-06-26 20:00:00 35 23 Este 48 Este 0 -- -- 28
2019-06-26 19:00:00 35.6 28 Este 59 Este 0 -- -- 26
2019-06-26 18:00:00 35.6 25 Este 53 Este 0 -- -- 27
2019-06-26 17:00:00 35.3 22 Este 47 Este 0 -- -- 27
2019-06-26 16:00:00 34.6 23 Este 49 Este 0 -- -- 28
2019-06-26 15:00:00 33.3 29 Este 48 Este 0 -- -- 30
2019-06-26 14:00:00 32.6 22 Este 43 Este 0 -- -- 31
2019-06-26 13:00:00 31.2 22 Este 45 Este 0 -- -- 34
2019-06-26 12:00:00 29.4 22 Este 40 Este 0 -- -- 40
2019-06-26 11:00:00 27.6 19 Este 40 Sudeste 0 -- -- 49
2019-06-26 10:00:00 25.2 24 Este 41 Este 0 -- -- 58
2019-06-26 09:00:00 23.2 17 Este 34 Este 0 -- -- 66
2019-06-26 08:00:00 21.7 18 Este 36 Este 0 -- -- 72
2019-06-26 07:00:00 21.1 19 Este 41 Este 0 -- -- 75
2019-06-26 06:00:00 21.4 22 Este 42 Sudeste 0 -- -- 74
2019-06-26 05:00:00 22.3 25 Este 41 Este 0 -- -- 68
2019-06-26 04:00:00 23.2 18 Este 34 Este 0 -- -- 62
2019-06-26 03:00:00 20 3 Oeste 9 Oeste 0 -- -- 82
2019-06-26 02:00:00 20.9 0 Calma 10 Sudoeste 0 -- -- 80
2019-06-26 01:00:00 22.2 5 Oeste 15 Oeste 0 -- -- 74
2019-06-26 00:00:00 23.8 6 Oeste 22 Sudoeste 0 -- -- 68
2019-06-25 23:00:00 25.3 10 Sudoeste 27 Sudoeste 0 -- -- 63
2019-06-25 22:00:00 30.7 7 Sur 38 Sudeste 0 -- -- 45
2019-06-25 21:00:00 32.2 17 Este 32 Este 0 -- -- 37
2019-06-25 20:00:00 33.1 13 Este 30 Este 0 -- -- 34
2019-06-25 19:00:00 33.4 15 Este 30 Este 0 -- -- 33
2019-06-25 18:00:00 33.5 12 Este 27 Nordeste 0 -- -- 34
2019-06-25 17:00:00 32.5 13 Este 26 Este 0 -- -- 37
2019-06-25 16:00:00 31.3 14 Este 25 Este 0 -- -- 37
2019-06-25 15:00:00 29.8 17 Este 29 Este 0 -- -- 39
2019-06-25 14:00:00 27.1 13 Este 29 Sudeste 0 -- -- 46
2019-06-25 13:00:00 25.4 13 Este 23 Este 0 -- -- 48
2019-06-25 12:00:00 23.7 8 Este 22 Este 0 -- -- 56
2019-06-25 11:00:00 20.7 4 Oeste 10 Oeste 0 -- -- 71
2019-06-25 10:00:00 19.2 3 Noroeste 7 Noroeste 0 -- -- 71
2019-06-25 09:00:00 18.4 3 Norte 9 Oeste 0 -- -- 75
2019-06-25 08:00:00 16.9 4 Noroeste 6 Noroeste 0 -- -- 83
2019-06-25 07:00:00 15.4 2 Noroeste 7 Oeste 0 -- -- 88
2019-06-25 06:00:00 16 3 Oeste 5 Oeste 0 -- -- 87
2019-06-25 05:00:00 16.9 3 Oeste 9 Sudoeste 0 -- -- 84
2019-06-25 04:00:00 17.6 4 Sudoeste 11 Sudoeste 0 -- -- 80
2019-06-25 03:00:00 18.2 4 Oeste 16 Sur 0 -- -- 78
2019-06-25 02:00:00 18.6 8 Sudoeste 23 Oeste 0 -- -- 75
2019-06-25 01:00:00 19 12 Oeste 25 Oeste 0 -- -- 70
2019-06-25 00:00:00 19.8 18 Oeste 31 Oeste 0 -- -- 70
2019-06-24 23:00:00 21.4 21 Oeste 45 Oeste 0 -- -- 64
2019-06-24 22:00:00 25.4 9 Oeste 15 Oeste 0 -- -- 55
2019-06-24 21:00:00 26.9 0 Calma 6 Este 0 -- -- 54
2019-06-24 20:00:00 28.2 2 Oeste 8 Sudeste 0 -- -- 50
2019-06-24 19:00:00 28.9 0 Calma 9 Sudeste 0 -- -- 41
2019-06-24 18:00:00 29.5 2 Noroeste 19 Nordeste 0 -- -- 37
2019-06-24 17:00:00 29.3 11 Este 32 Este 0 -- -- 33
2019-06-24 16:00:00 29.6 14 Este 30 Este 0 -- -- 33
2019-06-24 15:00:00 28.9 16 Este 33 Nordeste 0 -- -- 34
2019-06-24 14:00:00 26.6 12 Este 34 Este 0 -- -- 39
2019-06-24 13:00:00 26.5 10 Este 30 Este 0 -- -- 41
2019-06-24 12:00:00 26.2 16 Este 36 Este 0 -- -- 40
2019-06-24 11:00:00 25.3 12 Este 33 Este 0 -- -- 44
2019-06-24 10:00:00 23.5 21 Este 37 Este 0 -- -- 47
2019-06-24 09:00:00 22.3 22 Este 35 Este 0 -- -- 48
2019-06-24 08:00:00 20.4 9 Este 18 Este 0 -- -- 55
2019-06-24 07:00:00 18.3 4 Oeste 8 Sudoeste 0 -- -- 82
2019-06-24 06:00:00 18.4 0 Calma 6 Oeste 0 -- -- 85
2019-06-24 05:00:00 19.1 0 Calma 5 Sudoeste 0 -- -- 81
2019-06-24 04:00:00 20 0 Calma 4 Nordeste 0 -- -- 77
2019-06-24 03:00:00 20.9 0 Calma 8 Oeste 0 -- -- 72
2019-06-24 02:00:00 21.8 7 Oeste 16 Oeste 0 -- -- 66
2019-06-24 01:00:00 22.6 4 Oeste 15 Sudoeste 0 -- -- 63
2019-06-24 00:00:00 23.1 9 Sudoeste 21 Sudoeste 0 -- -- 62
2019-06-23 23:00:00 24.7 11 Oeste 25 Oeste 0 -- -- 56
2019-06-23 22:00:00 27.1 9 Oeste 14 Oeste 0 -- -- 52
2019-06-23 21:00:00 30 5 Sudoeste 10 Sudoeste 0 -- -- 42
2019-06-23 20:00:00 31.8 5 Oeste 10 Oeste 0 -- -- 36
2019-06-23 19:00:00 32.6 5 Noroeste 9 Noroeste 0 -- -- 35
2019-06-23 18:00:00 31.9 5 Noroeste 12 Noroeste 0 -- -- 37
2019-06-23 17:00:00 31.7 4 Norte 10 Nordeste 0 -- -- 35
2019-06-23 16:00:00 30.5 6 Nordeste 14 Nordeste 0 -- -- 42
2019-06-23 15:00:00 29 8 Este 16 Este 0 -- -- 45
2019-06-23 14:00:00 28.3 7 Este 19 Este 0 -- -- 47
2019-06-23 13:00:00 27.3 6 Nordeste 18 Este 0 -- -- 48
2019-06-23 12:00:00 25.3 8 Este 17 Este 0 -- -- 54
2019-06-23 11:00:00 23 6 Este 17 Este 0 -- -- 62
2019-06-23 10:00:00 21.5 7 Este 19 Este 0 -- -- 67
2019-06-23 09:00:00 19.9 11 Este 22 Este 0 -- -- 73
2019-06-23 08:00:00 19.3 8 Este 23 Este 0 -- -- 73
2019-06-23 07:00:00 19.8 11 Este 24 Este 0 -- -- 70
2019-06-23 06:00:00 19.9 6 Este 13 Este 0 -- -- 67
2019-06-23 05:00:00 20.3 5 Este 16 Este 0 -- -- 63
2019-06-23 04:00:00 20.4 5 Este 12 Sudeste 0 -- -- 61
2019-06-23 03:00:00 21 5 Sudeste 14 Este 0 -- -- 58
2019-06-23 02:00:00 21 0 Calma 4 Sur 0 -- -- 59
2019-06-23 01:00:00 22 2 Sudeste 5 Oeste 0 -- -- 57
2019-06-23 00:00:00 22.8 3 Oeste 16 Este 0 -- -- 57
2019-06-22 23:00:00 24.3 9 Sudeste 18 Este 0 -- -- 50
2019-06-22 22:00:00 25.9 11 Este 21 Este 0 -- -- 43
2019-06-22 21:00:00 27 10 Este 19 Este 0 -- -- 43
2019-06-22 20:00:00 28.2 12 Este 20 Este 0 -- -- 39
2019-06-22 19:00:00 28.7 10 Este 21 Este 0 -- -- 37
2019-06-22 18:00:00 28.5 12 Este 23 Este 0 -- -- 35
2019-06-22 17:00:00 27.9 12 Este 26 Este 0 -- -- 38
2019-06-22 16:00:00 27 12 Este 22 Este 0 -- -- 38
2019-06-22 15:00:00 25.6 10 Sudeste 21 Este 0 -- -- 41
2019-06-22 14:00:00 23.9 10 Este 22 Este 0 -- -- 47
2019-06-22 13:00:00 22.1 9 Este 15 Sudeste 0 -- -- 55
2019-06-22 12:00:00 19.7 5 Nordeste 11 Este 0 -- -- 60
2019-06-22 11:00:00 17.2 4 Norte 11 Noroeste 0 -- -- 70
2019-06-22 10:00:00 15 7 Noroeste 13 Oeste 0 -- -- 76
2019-06-22 09:00:00 13.3 5 Noroeste 11 Noroeste 0 -- -- 81
2019-06-22 08:00:00 11.7 4 Noroeste 10 Noroeste 0 -- -- 89
2019-06-22 07:00:00 9.8 4 Noroeste 6 Noroeste 0 -- -- 95
2019-06-22 06:00:00 10.2 2 Noroeste 6 Noroeste 0 -- -- 94
2019-06-22 05:00:00 10.8 3 Noroeste 5 Noroeste 0 -- -- 93
2019-06-22 04:00:00 11.6 0 Calma 6 Oeste 0 -- -- 91
2019-06-22 03:00:00 12.2 0 Calma 8 Sudoeste 0 -- -- 89
2019-06-22 02:00:00 12.8 0 Calma 6 Sur 0 -- -- 88
2019-06-22 01:00:00 13.9 4 Sudoeste 10 Sur 0 -- -- 83
2019-06-22 00:00:00 14.6 7 Sudoeste 12 Sur 0 -- -- 81
2019-06-21 23:00:00 15.8 2 Sudoeste 8 Oeste 0 -- -- 74
2019-06-21 22:00:00 17.1 3 Noroeste 15 Norte 0 -- -- 65
2019-06-21 21:00:00 18.6 8 Norte 20 Norte 0 -- -- 61
2019-06-21 20:00:00 19.7 10 Norte 22 Norte 0 -- -- 57
2019-06-21 19:00:00 20.7 10 Noroeste 18 Norte 0 -- -- 55
2019-06-21 18:00:00 20.4 8 Norte 17 Norte 0 -- -- 55
2019-06-21 17:00:00 22.4 10 Oeste 17 Noroeste 0 -- -- 49
2019-06-21 16:00:00 19.9 4 Nordeste 12 Norte 0 -- -- 55
2019-06-21 15:00:00 20.2 9 Noroeste 18 Noroeste 0 -- -- 59
2019-06-21 14:00:00 18.9 10 Noroeste 18 Noroeste 0 -- -- 63
2019-06-21 13:00:00 18.8 10 Noroeste 17 Noroeste 0 -- -- 64
2019-06-21 12:00:00 18.1 3 Oeste 12 Oeste 0 -- -- 70
2019-06-21 11:00:00 16.7 7 Oeste 14 Norte 0 -- -- 74
2019-06-21 10:00:00 15.1 5 Noroeste 17 Nordeste 0 -- -- 84
2019-06-21 09:00:00 14.7 4 Oeste 11 Oeste 0 -- -- 90
2019-06-21 08:00:00 14.6 6 Oeste 14 Sudoeste 0 -- -- 92
2019-06-21 07:00:00 13.7 2 Oeste 10 Oeste 0 -- -- 95
2019-06-21 06:00:00 13.7 3 Sudoeste 25 Oeste 1.6 -- -- 95
2019-06-21 05:00:00 14.2 8 Oeste 18 Oeste 0 -- -- 94
2019-06-21 04:00:00 14.1 8 Oeste 15 Oeste 0.2 -- -- 94
2019-06-21 03:00:00 14.3 6 Oeste 15 Sudoeste 2.8 -- -- 95
2019-06-21 02:00:00 14.7 6 Oeste 12 Oeste 5 -- -- 94
2019-06-21 01:00:00 15 3 Oeste 17 Oeste 0.8 -- -- 92
2019-06-21 00:00:00 15.3 8 Oeste 16 Oeste 1.2 -- -- 93
2019-06-20 23:00:00 15.5 3 Oeste 15 Sudoeste 1.6 -- -- 92
2019-06-20 22:00:00 15.6 0 Calma 15 Sudoeste 4 -- -- 92
2019-06-20 21:00:00 16.4 9 Oeste 20 Oeste 1 -- -- 89
2019-06-20 20:00:00 17.1 6 Sudoeste 15 Sur 3.4 -- -- 86
2019-06-20 19:00:00 18.5 8 Oeste 14 Oeste 0.6 -- -- 76
2019-06-20 18:00:00 21.2 6 Norte 25 Noroeste 0 -- -- 56
2019-06-20 17:00:00 21.8 7 Oeste 16 Noroeste 0 -- -- 56
2019-06-20 16:00:00 20.9 8 Oeste 21 Noroeste 0 -- -- 59
2019-06-20 15:00:00 21 8 Noroeste 22 Norte 0 -- -- 60
2019-06-20 14:00:00 21.6 6 Oeste 11 Oeste 0 -- -- 58
2019-06-20 13:00:00 20.8 5 Sudoeste 9 Oeste 0 -- -- 58
2019-06-20 12:00:00 19.3 5 Oeste 10 Oeste 0 -- -- 63
2019-06-20 11:00:00 18.3 4 Noroeste 6 Noroeste 0 -- -- 70
2019-06-20 10:00:00 17.6 3 Norte 7 Noroeste 0 -- -- 71
2019-06-20 09:00:00 17.1 3 Noroeste 6 Oeste 0 -- -- 75
2019-06-20 08:00:00 16.4 0 Calma 6 Oeste 0 -- -- 77
2019-06-20 07:00:00 15.5 3 Noroeste 13 Oeste 0 -- -- 81
2019-06-20 06:00:00 16.1 8 Oeste 15 Sudoeste 0 -- -- 78
2019-06-20 05:00:00 16.5 8 Oeste 20 Sudoeste 0 -- -- 77
2019-06-20 04:00:00 17 12 Oeste 22 Oeste 0 -- -- 76
2019-06-20 03:00:00 17.3 9 Oeste 17 Oeste 0 -- -- 74
2019-06-20 02:00:00 17.5 7 Oeste 18 Oeste 0 -- -- 74
2019-06-20 01:00:00 17.8 9 Oeste 24 Oeste 0 -- -- 74
2019-06-20 00:00:00 18.7 12 Oeste 23 Oeste 0 -- -- 71
2019-06-19 23:00:00 20.6 9 Oeste 17 Oeste 0 -- -- 63
2019-06-19 22:00:00 22.3 12 Oeste 23 Noroeste 0 -- -- 56
2019-06-19 21:00:00 25 8 Norte 22 Norte 0 -- -- 48
2019-06-19 20:00:00 27.2 9 Noroeste 25 Noroeste 0 -- -- 37
2019-06-19 19:00:00 27.2 13 Noroeste 24 Noroeste 0 -- -- 38
2019-06-19 18:00:00 27.6 5 Noroeste 13 Norte 0 -- -- 35
2019-06-19 17:00:00 27.5 7 Noroeste 17 Oeste 0 -- -- 34
2019-06-19 16:00:00 27.2 12 Noroeste 25 Oeste 0 -- -- 34
2019-06-19 15:00:00 26.8 13 Oeste -- -- -- -- -- 33
2019-06-19 14:00:00 27.3 13 Oeste 30 Oeste 0 -- -- 36
2019-06-19 13:00:00 24.8 15 Noroeste -- -- -- -- -- 42
2019-06-19 12:00:00 -- -- -- -- -- -- -- -- --
2019-06-19 11:00:00 -- -- -- -- -- -- -- -- --
2019-06-19 10:00:00 -- -- -- -- -- -- -- -- --
2019-06-19 09:00:00 -- -- -- -- -- -- -- -- --
2019-06-19 08:00:00 -- -- -- -- -- -- -- -- --
2019-06-19 07:00:00 -- -- -- -- -- -- -- -- --
2019-06-19 06:00:00 -- -- -- -- -- -- -- -- --
2019-06-19 05:00:00 -- -- -- -- -- -- -- -- --
2019-06-19 04:00:00 -- -- -- -- -- -- -- -- --
2019-06-19 03:00:00 -- -- -- -- -- -- -- -- --
2019-06-19 02:00:00 -- -- -- -- -- -- -- -- --
2019-06-19 01:00:00 -- -- -- -- -- -- -- -- --
2019-06-19 00:00:00 -- -- -- -- -- -- -- -- --
2019-06-18 23:00:00 -- -- -- -- -- -- -- -- --
2019-06-18 22:00:00 -- -- -- -- -- -- -- -- --
2019-06-18 21:00:00 -- -- -- -- -- -- -- -- --
2019-06-18 20:00:00 -- -- -- -- -- -- -- -- --
2019-06-18 19:00:00 34.5 13 Sudoeste 34 Sudoeste 0 -- -- 12
2019-06-18 18:00:00 35.3 13 Sudoeste 34 Sudoeste 0 -- -- 12
2019-06-18 17:00:00 35.3 14 Sudoeste 37 Oeste 0 -- -- 12
2019-06-18 16:00:00 34.8 16 Oeste 36 Oeste 0 -- -- 14
2019-06-18 15:00:00 32.6 9 Este 26 Sudeste 0 -- -- 18
2019-06-18 14:00:00 31 6 Nordeste 17 Nordeste 0 -- -- 24
2019-06-18 13:00:00 29.6 8 Nordeste 20 Sudeste 0 -- -- 28
2019-06-18 12:00:00 27.3 9 Este 26 Este 0 -- -- 32
2019-06-18 11:00:00 25.2 11 Este 27 Este 0 -- -- 36
2019-06-18 10:00:00 23.5 13 Este 22 Este 0 -- -- 40
2019-06-18 09:00:00 21.4 9 Este 25 Este 0 -- -- 46
2019-06-18 08:00:00 21 9 Este 23 Este 0 -- -- 49
2019-06-18 07:00:00 19.7 7 Este 23 Este 0 -- -- 53
2019-06-18 06:00:00 20.1 9 Este 20 Este 0 -- -- 56
2019-06-18 05:00:00 21 6 Sudeste 13 Sudeste 0 -- -- 44
2019-06-18 04:00:00 21.9 4 Oeste 19 Oeste 0 -- -- 39
2019-06-18 03:00:00 22.1 8 Oeste 15 Oeste 0 -- -- 41
2019-06-18 02:00:00 22.8 9 Oeste 17 Noroeste 0 -- -- 47
2019-06-18 01:00:00 24 8 Oeste 19 Sudoeste 0 -- -- 48
2019-06-18 00:00:00 24.5 7 Sudoeste 17 Sudoeste 0 -- -- 45
2019-06-17 23:00:00 25.5 0 Calma 6 Oeste 0 -- -- 40
2019-06-17 22:00:00 27.6 2 Sudeste 5 Sur 0 -- -- 33
2019-06-17 21:00:00 29.7 3 Este 7 Nordeste 0 -- -- 29
2019-06-17 20:00:00 30.5 3 Nordeste 12 Sudeste 0 -- -- 26
2019-06-17 19:00:00 31.4 6 Este 17 Este 0 -- -- 23
2019-06-17 18:00:00 32.1 7 Este 19 Este 0 -- -- 23
2019-06-17 17:00:00 31.8 9 Este 22 Este 0 -- -- 23
2019-06-17 16:00:00 31.2 11 Este 23 Sudeste 0 -- -- 24
2019-06-17 15:00:00 30.1 9 Nordeste 18 Nordeste 0 -- -- 28
2019-06-17 14:00:00 28.3 8 Nordeste 20 Este 0 -- -- 34
2019-06-17 13:00:00 26.6 10 Este 21 Este 0 -- -- 38
2019-06-17 12:00:00 24.4 9 Este 20 Este 0 -- -- 43
2019-06-17 11:00:00 22.2 9 Este 16 Este 0 -- -- 53
2019-06-17 10:00:00 19 3 Norte 7 Oeste 0 -- -- 65
2019-06-17 09:00:00 16.7 3 Norte 10 Oeste 0 -- -- 72
2019-06-17 08:00:00 14.1 2 Noroeste 5 Noroeste 0 -- -- 79
2019-06-17 07:00:00 12.2 0 Calma 5 Oeste 0 -- -- 86
2019-06-17 06:00:00 13 3 Oeste 5 Oeste 0 -- -- 82
2019-06-17 05:00:00 14.3 4 Oeste 8 Oeste 0 -- -- 80
2019-06-17 04:00:00 15.7 3 Oeste 9 Sudoeste 0 -- -- 75
2019-06-17 03:00:00 16.8 3 Sudoeste 10 Sudoeste 0 -- -- 73
2019-06-17 02:00:00 17.9 3 Oeste 10 Sudoeste 0 -- -- 67
2019-06-17 01:00:00 19.3 3 Oeste 9 Oeste 0 -- -- 54
2019-06-17 00:00:00 21.1 3 Oeste 6 Este 0 -- -- 42
2019-06-16 23:00:00 23 6 Sudeste 14 Sudeste 0 -- -- 34
2019-06-16 22:00:00 24.2 0 Calma 9 Este 0 -- -- 37
2019-06-16 21:00:00 26.4 5 Este 12 Este 0 -- -- 30
2019-06-16 20:00:00 27.5 7 Este 17 Sudeste 0 -- -- 28
2019-06-16 19:00:00 28.5 8 Este 21 Este 0 -- -- 27
2019-06-16 18:00:00 29 9 Este 24 Este 0 -- -- 27
2019-06-16 17:00:00 28.2 14 Este 29 Sudeste 0 -- -- 26
2019-06-16 16:00:00 27.8 13 Este 26 Sudeste 0 -- -- 28
2019-06-16 15:00:00 26.7 14 Este 27 Este 0 -- -- 31
2019-06-16 14:00:00 25.2 15 Este 31 Este 0 -- -- 33
2019-06-16 13:00:00 23.1 11 Este 23 Sudeste 0 -- -- 39
2019-06-16 12:00:00 20.8 10 Este 22 Este 0 -- -- 45
2019-06-16 11:00:00 18.1 6 Este 13 Este 0 -- -- 52
2019-06-16 10:00:00 15.3 4 Noroeste 9 Norte 0 -- -- 64
2019-06-16 09:00:00 12.4 4 Norte 9 Noroeste 0 -- -- 74
2019-06-16 08:00:00 10.8 3 Noroeste 5 Noroeste 0 -- -- 82
2019-06-16 07:00:00 9 3 Oeste 7 Noroeste 0 -- -- 89
2019-06-16 06:00:00 9.5 4 Oeste 6 Noroeste 0 -- -- 88
2019-06-16 05:00:00 10 0 Calma 4 Oeste 0 -- -- 85
2019-06-16 04:00:00 11 2 Oeste 5 Oeste 0 -- -- 82
2019-06-16 03:00:00 12.2 2 Oeste 12 Sudoeste 0 -- -- 77
2019-06-16 02:00:00 13.1 8 Sudoeste 14 Sudoeste 0 -- -- 70
2019-06-16 01:00:00 14 4 Sudoeste 18 Sur 0 -- -- 67
2019-06-16 00:00:00 15.4 9 Sudoeste 21 Sudoeste 0 -- -- 63
2019-06-15 23:00:00 17.2 4 Sudeste 16 Sudeste 0 -- -- 53
2019-06-15 22:00:00 18.6 4 Este 18 Noroeste 0 -- -- 51
2019-06-15 21:00:00 20.1 9 Norte 23 Norte 0 -- -- 48
2019-06-15 20:00:00 22.2 11 Norte 21 Norte 0 -- -- 41
2019-06-15 19:00:00 23.7 12 Noroeste 19 Norte 0 -- -- 36
2019-06-15 18:00:00 23.8 10 Noroeste 24 Noroeste 0 -- -- 33
2019-06-15 17:00:00 24.2 12 Noroeste 24 Norte 0 -- -- 33
2019-06-15 16:00:00 23.4 8 Norte 28 Oeste 0 -- -- 32
2019-06-15 15:00:00 23 13 Noroeste 26 Noroeste 0 -- -- 33
2019-06-15 14:00:00 21.8 9 Noroeste 24 Norte 0 -- -- 34
2019-06-15 13:00:00 20.6 6 Noroeste 19 Norte 0 -- -- 40
2019-06-15 12:00:00 19.5 10 Oeste 20 Oeste 0 -- -- 43
2019-06-15 11:00:00 18.2 8 Oeste 16 Oeste 0 -- -- 47
2019-06-15 10:00:00 16.5 7 Oeste 18 Oeste 0 -- -- 54
2019-06-15 09:00:00 15.5 8 Oeste 19 Sudoeste 0 -- -- 59
2019-06-15 08:00:00 14 9 Oeste 21 Oeste 0 -- -- 67
2019-06-15 07:00:00 11.9 7 Sudoeste 13 Sudoeste 0 -- -- 77
2019-06-15 06:00:00 11.6 2 Oeste 16 Noroeste 0 -- -- 79
2019-06-15 05:00:00 12.2 8 Noroeste 18 Oeste 0 -- -- 76
2019-06-15 04:00:00 12.8 9 Oeste 16 Oeste 0 -- -- 73
2019-06-15 03:00:00 13.4 8 Oeste 18 Oeste 0 -- -- 74
2019-06-15 02:00:00 14.1 12 Oeste 20 Oeste 0 -- -- 73
2019-06-15 01:00:00 14.5 9 Oeste 24 Noroeste 0 -- -- 71
2019-06-15 00:00:00 14.6 14 Noroeste 28 Oeste 0 -- -- 73
2019-06-14 23:00:00 15.3 15 Oeste 28 Oeste 0 -- -- 71
2019-06-14 22:00:00 16.6 14 Oeste 32 Oeste 0 -- -- 66
2019-06-14 21:00:00 19.6 15 Oeste 27 Oeste 0 -- -- 57
2019-06-14 20:00:00 22.6 11 Noroeste 24 Noroeste 0 -- -- 48
2019-06-14 19:00:00 25.1 9 Norte 19 Nordeste 0 -- -- 44
2019-06-14 18:00:00 27.3 4 Sudoeste 17 Este 0 -- -- 33
2019-06-14 17:00:00 27.3 6 Oeste 20 Este 0 -- -- 37
2019-06-14 16:00:00 26 4 Norte 13 Oeste 0 -- -- 40
2019-06-14 15:00:00 24.7 6 Oeste 12 Sudoeste 0 -- -- 43
2019-06-14 14:00:00 22.1 4 Noroeste 13 Noroeste 0 -- -- 48
2019-06-14 13:00:00 20.3 8 Noroeste 19 Oeste 0 -- -- 51
2019-06-14 12:00:00 19.2 8 Oeste 21 Oeste 0 -- -- 56
2019-06-14 11:00:00 17.7 8 Oeste 20 Oeste 0 -- -- 61
2019-06-14 10:00:00 15.9 9 Oeste 21 Noroeste 0 -- -- 66
2019-06-14 09:00:00 15.5 9 Oeste 17 Oeste 0 -- -- 70
2019-06-14 08:00:00 13.6 7 Oeste 13 Oeste 0 -- -- 78
2019-06-14 07:00:00 11.7 5 Oeste 12 Oeste 0 -- -- 85
2019-06-14 06:00:00 12.1 4 Oeste 11 Sudoeste 0 -- -- 83
2019-06-14 05:00:00 12.4 5 Sudoeste 12 Sur 0 -- -- 82
2019-06-14 04:00:00 12.8 6 Sudoeste 15 Sudoeste 0 -- -- 80
2019-06-14 03:00:00 13.1 5 Sudoeste 15 Oeste 0 -- -- 78
2019-06-14 02:00:00 12.9 9 Sudoeste 18 Sudoeste 0 -- -- 78
2019-06-14 01:00:00 13.3 10 Sudoeste 23 Sudoeste 0 -- -- 77
2019-06-14 00:00:00 13.6 8 Sudoeste 29 Oeste 0 -- -- 75
2019-06-13 23:00:00 14.8 11 Sudoeste 24 Sudoeste 0 -- -- 70
2019-06-13 22:00:00 16.7 14 Sudoeste 29 Oeste 0 -- -- 63
2019-06-13 21:00:00 21.4 16 Oeste 35 Sudoeste 0 -- -- 51
2019-06-13 20:00:00 28 9 Oeste 19 Oeste 0 -- -- 37
2019-06-13 19:00:00 29.6 5 Noroeste 19 Oeste 0 -- -- 22
2019-06-13 18:00:00 29.9 7 Oeste 32 Este 0 -- -- 22
2019-06-13 17:00:00 28.8 11 Sudeste 37 Nordeste 0 -- -- 30
2019-06-13 16:00:00 26.8 18 Este 40 Este 0 -- -- 38
2019-06-13 15:00:00 25.6 21 Este 39 Este 0 -- -- 40
2019-06-13 14:00:00 24.1 19 Este 37 Este 0 -- -- 42
2019-06-13 13:00:00 22.3 19 Este 39 Este 0 -- -- 44
2019-06-13 12:00:00 19.8 19 Este 37 Sudeste 0 -- -- 48
2019-06-13 11:00:00 17.5 15 Este 36 Este 0 -- -- 53
2019-06-13 10:00:00 15.2 14 Este 25 Sudeste 0 -- -- 60
2019-06-13 09:00:00 11.8 3 Noroeste 6 Oeste 0 -- -- 76
2019-06-13 08:00:00 8.9 2 Oeste 6 Oeste 0 -- -- 91
2019-06-13 07:00:00 7.5 3 Oeste 5 Oeste 0 -- -- 92
2019-06-13 06:00:00 7.6 2 Noroeste 5 Sudeste 0 -- -- 90
2019-06-13 05:00:00 8.4 0 Calma 4 Nordeste 0 -- -- 88
2019-06-13 04:00:00 9.4 0 Calma 2 Nordeste 0 -- -- 85
2019-06-13 03:00:00 10.4 0 Calma 9 Sudoeste 0 -- -- 79
2019-06-13 02:00:00 11 3 Oeste 12 Sudeste 0 -- -- 76
2019-06-13 01:00:00 11.6 6 Sur 22 Sudeste 0 -- -- 73
2019-06-13 00:00:00 12.6 7 Sur 20 Sudoeste 0 -- -- 70
2019-06-12 23:00:00 14.7 8 Sur 21 Sudoeste 0 -- -- 63
2019-06-12 22:00:00 17.2 3 Oeste 15 Norte 0 -- -- 52
2019-06-12 21:00:00 19.4 8 Norte 17 Nordeste 0 -- -- 45
2019-06-12 20:00:00 21.6 6 Nordeste 17 Sudeste 0 -- -- 31
2019-06-12 19:00:00 22.1 3 Noroeste 14 Este 0 -- -- 30
2019-06-12 18:00:00 22.2 4 Oeste 22 Este 0 -- -- 30
2019-06-12 17:00:00 21.8 11 Este 20 Nordeste 0 -- -- 31
2019-06-12 16:00:00 21.5 7 Norte 14 Noroeste 0 -- -- 30
2019-06-12 15:00:00 20.6 8 Noroeste 15 Noroeste 0 -- -- 34
2019-06-12 14:00:00 19.3 5 Noroeste 18 Noroeste 0 -- -- 35
2019-06-12 13:00:00 18.4 5 Oeste 16 Oeste 0 -- -- 37
2019-06-12 12:00:00 16.7 5 Noroeste 10 Noroeste 0 -- -- 42
2019-06-12 11:00:00 14.9 4 Noroeste 9 Noroeste 0 -- -- 51
2019-06-12 10:00:00 13.3 2 Noroeste 12 Oeste 0 -- -- 60
2019-06-12 09:00:00 11.4 5 Noroeste 11 Oeste 0 -- -- 66
2019-06-12 08:00:00 9.6 9 Oeste 13 Oeste 0 -- -- 72
2019-06-12 07:00:00 7.6 3 Oeste 14 Noroeste 0 -- -- 82
2019-06-12 06:00:00 8.2 11 Oeste 17 Oeste 0 -- -- 79
2019-06-12 05:00:00 8 3 Oeste 10 Noroeste 0 -- -- 83
2019-06-12 04:00:00 7.5 3 Noroeste 6 Noroeste 0 -- -- 87
2019-06-12 03:00:00 7.9 3 Oeste 4 Sudoeste 0 -- -- 86
2019-06-12 02:00:00 8.8 3 Sudoeste 9 Oeste 0 -- -- 79
2019-06-12 01:00:00 9.5 3 Oeste 8 Sudoeste 0 -- -- 76
2019-06-12 00:00:00 10.2 5 Sudoeste 11 Oeste 0 -- -- 72
2019-06-11 23:00:00 11.1 3 Oeste 6 Oeste 0 -- -- 71
2019-06-11 22:00:00 12.2 3 Norte 15 Norte 0 -- -- 66
2019-06-11 21:00:00 14 10 Noroeste 23 Noroeste 0 -- -- 55
2019-06-11 20:00:00 15.2 8 Oeste 27 Noroeste 0 -- -- 56
2019-06-11 19:00:00 14.6 13 Noroeste 29 Oeste 0 -- -- 58
2019-06-11 18:00:00 14.4 15 Noroeste 37 Oeste 0 -- -- 56
2019-06-11 17:00:00 15.4 13 Noroeste 30 Oeste 0 -- -- 50
2019-06-11 16:00:00 15.3 19 Oeste 35 Oeste 0 -- -- 54
2019-06-11 15:00:00 12.6 8 Oeste 31 Noroeste 0.8 -- -- 75
2019-06-11 14:00:00 14.1 18 Noroeste 34 Oeste 0 -- -- 59
2019-06-11 13:00:00 14.9 15 Noroeste 36 Oeste 0 -- -- 53
2019-06-11 12:00:00 12.8 15 Oeste 36 Oeste 0 -- -- 64
2019-06-11 11:00:00 12.2 15 Noroeste 32 Oeste 0 -- -- 66
2019-06-11 10:00:00 12 14 Noroeste 30 Oeste 0 -- -- 72
2019-06-11 09:00:00 11.9 10 Oeste 21 Oeste 0 -- -- 82
2019-06-11 08:00:00 10.5 8 Oeste 14 Oeste 0 -- -- 88
2019-06-11 07:00:00 9.6 5 Oeste 15 Oeste 0.2 -- -- 90
2019-06-11 06:00:00 9.5 5 Oeste 10 Sudoeste 0 -- -- 91
2019-06-11 05:00:00 9.6 4 Oeste 14 Oeste 0.4 -- -- 91
2019-06-11 04:00:00 9.7 6 Oeste 14 Sudoeste 0.8 -- -- 91
2019-06-11 03:00:00 9.9 7 Oeste 18 Oeste 1.2 -- -- 90
2019-06-11 02:00:00 10.4 7 Oeste 16 Oeste 1.2 -- -- 86
2019-06-11 01:00:00 11.6 8 Oeste 13 Oeste 0 -- -- 75
2019-06-11 00:00:00 12.2 3 Oeste 9 Nordeste 0 -- -- 71
2019-06-10 23:00:00 12.5 4 Norte 10 Este 0 -- -- 61
2019-06-10 22:00:00 13 3 Oeste 13 Norte 0.2 -- -- 70
2019-06-10 21:00:00 13.6 6 Norte 24 Norte 0 -- -- 60
2019-06-10 20:00:00 15.1 13 Norte 28 Norte 0 -- -- 53
2019-06-10 19:00:00 17 15 Norte 32 Nordeste 0 -- -- 48
2019-06-10 18:00:00 18.2 13 Norte 27 Norte 0 -- -- 43
2019-06-10 17:00:00 19 10 Noroeste 31 Noroeste 0 -- -- 42
2019-06-10 16:00:00 17.7 11 Noroeste 22 Noroeste 0 -- -- 47
2019-06-10 15:00:00 17.7 7 Oeste 21 Oeste 0 -- -- 48
2019-06-10 14:00:00 16.9 10 Noroeste 21 Noroeste 0 -- -- 51
2019-06-10 13:00:00 14.5 13 Noroeste 26 Oeste 0 -- -- 59
2019-06-10 12:00:00 13.7 14 Oeste 22 Oeste 0 -- -- 66
2019-06-10 11:00:00 12.7 11 Oeste 25 Oeste 0 -- -- 70
2019-06-10 10:00:00 12.1 12 Oeste 22 Noroeste 0 -- -- 71
2019-06-10 09:00:00 11.9 12 Oeste 19 Oeste 0 -- -- 71
2019-06-10 08:00:00 11.7 12 Oeste 21 Noroeste 0 -- -- 75
2019-06-10 07:00:00 11.6 9 Oeste 18 Noroeste 0 -- -- 74
2019-06-10 06:00:00 11.8 12 Oeste 23 Oeste 0 -- -- 75
2019-06-10 05:00:00 12.1 8 Noroeste 18 Noroeste 0 -- -- 74
2019-06-10 04:00:00 12.5 7 Noroeste 15 Oeste 0 -- -- 77
2019-06-10 03:00:00 13 10 Oeste 19 Oeste 0 -- -- 76
2019-06-10 02:00:00 13.4 8 Oeste 14 Noroeste 0 -- -- 72
2019-06-10 01:00:00 13.5 10 Noroeste 18 Noroeste 0 -- -- 71
2019-06-10 00:00:00 13.9 5 Noroeste 23 Nordeste 0 -- -- 71
2019-06-09 23:00:00 14.3 7 Norte 21 Norte 0 -- -- 68
2019-06-09 22:00:00 14.6 7 Noroeste 28 Norte 0 -- -- 72
2019-06-09 21:00:00 15.6 8 Norte 33 Norte 0 -- -- 69
2019-06-09 20:00:00 17.4 9 Norte 33 Noroeste 0 -- -- 62
2019-06-09 19:00:00 19.9 12 Norte 35 Norte 0 -- -- 54
2019-06-09 18:00:00 21.4 17 Norte 34 Nordeste 0 -- -- 50
2019-06-09 17:00:00 23.5 14 Norte 32 Norte 0 -- -- 46
2019-06-09 16:00:00 24.7 13 Noroeste 28 Oeste 0 -- -- 41
2019-06-09 15:00:00 25 11 Oeste 22 Oeste 0 -- -- 38
2019-06-09 14:00:00 22.8 10 Noroeste 20 Oeste 0 -- -- 47
2019-06-09 13:00:00 21.4 7 Oeste 18 Oeste 0 -- -- 47
2019-06-09 12:00:00 19.7 8 Oeste 19 Oeste 0 -- -- 50
2019-06-09 11:00:00 18 8 Oeste 17 Oeste 0 -- -- 59
2019-06-09 10:00:00 16.4 10 Oeste 21 Oeste 0 -- -- 66
2019-06-09 09:00:00 14.8 9 Oeste 19 Oeste 0 -- -- 73
2019-06-09 08:00:00 12.2 8 Oeste 17 Oeste 0 -- -- 84
2019-06-09 07:00:00 11.6 4 Oeste 8 Oeste 0 -- -- 87
2019-06-09 06:00:00 12 3 Sudoeste 12 Oeste 0 -- -- 85
2019-06-09 05:00:00 12.2 6 Oeste 17 Sudoeste 0 -- -- 85
2019-06-09 04:00:00 12.6 10 Sudoeste 17 Sudoeste 0 -- -- 83
2019-06-09 03:00:00 13 5 Sudoeste 19 Sur 0 -- -- 81
2019-06-09 02:00:00 13.3 6 Sudoeste 21 Sudoeste 0 -- -- 80
2019-06-09 01:00:00 14 9 Sudoeste 22 Sudoeste 0 -- -- 77
2019-06-09 00:00:00 14.8 10 Sur 27 Sur 0 -- -- 74
2019-06-08 23:00:00 15.9 13 Sur 31 Sudoeste 0.2 -- -- 72
2019-06-08 22:00:00 18.8 13 Sur 33 Sudoeste 0 -- -- 62
2019-06-08 21:00:00 23.8 15 Este 28 Este 0 -- -- 37
2019-06-08 20:00:00 24.7 13 Este 31 Este 0 -- -- 32
2019-06-08 19:00:00 25 14 Este 40 Este 0 -- -- 29
2019-06-08 18:00:00 25.2 15 Este 31 Este 0 -- -- 29
2019-06-08 17:00:00 24.4 14 Nordeste 34 Este 0 -- -- 31
2019-06-08 16:00:00 23.9 16 Este 31 Este 0 -- -- 31
2019-06-08 15:00:00 23 13 Este 30 Este 0 -- -- 32
2019-06-08 14:00:00 21.6 12 Este 24 Sudeste 0 -- -- 35
2019-06-08 13:00:00 19.2 10 Este 22 Sudeste 0 -- -- 41
2019-06-08 12:00:00 17 6 Nordeste 17 Nordeste 0 -- -- 47
2019-06-08 11:00:00 15.4 3 Este 10 Noroeste 0 -- -- 53
2019-06-08 10:00:00 12.6 4 Norte 10 Oeste 0 -- -- 66
2019-06-08 09:00:00 11.1 5 Noroeste 10 Oeste 0 -- -- 73
2019-06-08 08:00:00 9 4 Noroeste 8 Noroeste 0 -- -- 84
2019-06-08 07:00:00 7.2 0 Calma 5 Noroeste 0 -- -- 91
2019-06-08 06:00:00 7.6 0 Calma 6 Sudoeste 0 -- -- 89
2019-06-08 05:00:00 8.3 3 Sudoeste 8 Sur 0 -- -- 86
2019-06-08 04:00:00 9 2 Noroeste 8 Sudoeste 0 -- -- 83
2019-06-08 03:00:00 9.9 4 Sudoeste 13 Sudoeste 0 -- -- 76
2019-06-08 02:00:00 10.8 4 Sudoeste 10 Sudoeste 0 -- -- 72
2019-06-08 01:00:00 12 3 Sur 9 Sur 0 -- -- 69
2019-06-08 00:00:00 12.9 3 Sur 15 Sudoeste 0 -- -- 65
2019-06-07 23:00:00 14.1 5 Sudeste 16 Sur 0 -- -- 61
2019-06-07 22:00:00 16 4 Sudoeste 19 Norte 0 -- -- 48
2019-06-07 21:00:00 17.8 9 Noroeste 30 Noroeste 0 -- -- 43
2019-06-07 20:00:00 19.6 12 Noroeste 44 Noroeste 0 -- -- 35
2019-06-07 19:00:00 20.7 22 Oeste 39 Oeste 0 -- -- 26
2019-06-07 18:00:00 21.2 20 Noroeste 40 Oeste 0 -- -- 27
2019-06-07 17:00:00 20.5 19 Noroeste 42 Noroeste 0 -- -- 29
2019-06-07 16:00:00 19.9 21 Noroeste 42 Oeste 0 -- -- 31
2019-06-07 15:00:00 19.1 23 Noroeste 48 Noroeste 0 -- -- 35
2019-06-07 14:00:00 18.6 22 Noroeste 44 Oeste 0 -- -- 35
2019-06-07 13:00:00 17.8 23 Noroeste 46 Oeste 0 -- -- 39
2019-06-07 12:00:00 16.5 23 Noroeste 50 Oeste 0 -- -- 44
2019-06-07 11:00:00 15.8 23 Oeste 51 Oeste 0 -- -- 45
2019-06-07 10:00:00 15.1 17 Oeste 36 Oeste 0 -- -- 46
2019-06-07 09:00:00 13.6 17 Noroeste 36 Oeste 0 -- -- 55
2019-06-07 08:00:00 12.5 9 Noroeste 18 Noroeste 0 -- -- 59
2019-06-07 07:00:00 10.3 4 Noroeste 21 Oeste 0 -- -- 67
2019-06-07 06:00:00 10.9 7 Oeste 26 Oeste 0 -- -- 59
2019-06-07 05:00:00 10.6 6 Sudoeste 21 Sudoeste 0 -- -- 72
2019-06-07 04:00:00 11.3 13 Oeste 47 Sudoeste 0.4 -- -- 72
2019-06-07 03:00:00 11.9 18 Oeste 46 Noroeste 0 -- -- 68
2019-06-07 02:00:00 13.2 21 Noroeste 48 Oeste 0.2 -- -- 75
2019-06-07 01:00:00 17.7 9 Oeste 20 Oeste 0 -- -- 54
2019-06-07 00:00:00 18.9 4 Oeste 26 Noroeste 0 -- -- 49
2019-06-06 23:00:00 21.2 4 Sur 16 Sudeste 0 -- -- 30
2019-06-06 22:00:00 22.3 9 Sur 26 Sudeste 0 -- -- 26
2019-06-06 21:00:00 23.5 9 Sur 29 Sudoeste 0 -- -- 25
2019-06-06 20:00:00 25.1 12 Sudoeste 34 Sur 0 -- -- 23
2019-06-06 19:00:00 25.6 13 Sur 37 Sudeste 0 -- -- 22
2019-06-06 18:00:00 26.1 15 Sur 35 Sur 0 -- -- 23
2019-06-06 17:00:00 26.2 14 Sur 41 Sur 0 -- -- 24
2019-06-06 16:00:00 23.5 12 Sur 32 Sudeste 0 -- -- 28
2019-06-06 15:00:00 21.2 15 Este 34 Este 0 -- -- 48
2019-06-06 14:00:00 19.7 16 Este 32 Nordeste 0 -- -- 54
2019-06-06 13:00:00 17.6 13 Este 34 Nordeste 0 -- -- 60
2019-06-06 12:00:00 16.2 17 Este 28 Este 0 -- -- 62
2019-06-06 11:00:00 14.7 10 Este 23 Este 0 -- -- 67
2019-06-06 10:00:00 13 10 Este 17 Este 0 -- -- 72
2019-06-06 09:00:00 12.1 5 Este 9 Este 0 -- -- 79
2019-06-06 08:00:00 10.2 0 Calma 3 Norte 0 -- -- 88
2019-06-06 07:00:00 9.8 0 Calma 6 Sudeste 0 -- -- 86
2019-06-06 06:00:00 9.7 0 Calma 5 Sudoeste 0 -- -- 88
2019-06-06 05:00:00 10.1 0 Calma 3 Sudoeste 0 -- -- 85
2019-06-06 04:00:00 10.8 0 Calma 9 Sudoeste 0 -- -- 81
2019-06-06 03:00:00 11.6 5 Sur 13 Sur 0 -- -- 77
2019-06-06 02:00:00 11.9 0 Calma 11 Sudoeste 0 -- -- 77
2019-06-06 01:00:00 12.4 4 Sur 12 Sudeste 0 -- -- 78
2019-06-06 00:00:00 12.4 2 Sur 6 Sudoeste 0 -- -- 79
2019-06-05 23:00:00 12.4 3 Sudoeste 9 Sudoeste 0 -- -- 78
2019-06-05 22:00:00 12.4 5 Oeste 12 Oeste 0.2 -- -- 77
2019-06-05 21:00:00 13.3 7 Noroeste 23 Norte 0 -- -- 69
2019-06-05 20:00:00 14.8 9 Norte 21 Norte 0 -- -- 64
2019-06-05 19:00:00 15.5 5 Norte 13 Noroeste 0 -- -- 59
2019-06-05 18:00:00 15.6 5 Nordeste 15 Nordeste 0 -- -- 65
2019-06-05 17:00:00 13.5 10 Norte 22 Norte 0 -- -- 73
2019-06-05 16:00:00 16 10 Oeste 36 Oeste 0 -- -- 65
2019-06-05 15:00:00 14.4 23 Oeste 47 Oeste 0 -- -- 66
2019-06-05 14:00:00 15.6 13 Noroeste 26 Oeste 0.2 -- -- 63
2019-06-05 13:00:00 13 11 Oeste 30 Sudoeste 0.2 -- -- 83
2019-06-05 12:00:00 12.1 14 Oeste 23 Oeste 0 -- -- 81
2019-06-05 11:00:00 11.1 14 Oeste 26 Oeste 0.4 -- -- 88
2019-06-05 10:00:00 10.7 14 Oeste 23 Oeste 0.6 -- -- 91
2019-06-05 09:00:00 10.3 14 Oeste 26 Oeste 0.2 -- -- 92
2019-06-05 08:00:00 10.4 13 Noroeste 24 Oeste 4.4 -- -- 94
2019-06-05 07:00:00 10.9 10 Oeste 22 Oeste 4.6 -- -- 93
2019-06-05 06:00:00 11.5 11 Oeste 18 Oeste 1.2 -- -- 90
2019-06-05 05:00:00 12.7 6 Oeste 15 Oeste 0.2 -- -- 84
2019-06-05 04:00:00 14 6 Oeste 13 Noroeste 0 -- -- 69
2019-06-05 03:00:00 14.2 6 Noroeste 12 Noroeste 0 -- -- 67
2019-06-05 02:00:00 14.6 3 Norte 7 Nordeste 0 -- -- 66
2019-06-05 01:00:00 14.8 4 Nordeste 13 Sudeste 0 -- -- 64
2019-06-05 00:00:00 14.9 6 Sur 16 Sur 0 -- -- 64
2019-06-04 23:00:00 15.2 8 Sudoeste 17 Sur 0 -- -- 63
2019-06-04 22:00:00 16.1 6 Oeste 19 Sudoeste 0 -- -- 64
2019-06-04 21:00:00 17.7 10 Oeste 24 Noroeste 0 -- -- 61
2019-06-04 20:00:00 20.9 13 Noroeste 36 Norte 0 -- -- 55
2019-06-04 19:00:00 23.1 14 Norte 35 Norte 0 -- -- 51
2019-06-04 18:00:00 27.4 23 Noroeste 41 Noroeste 0 -- -- 30
2019-06-04 17:00:00 29.4 21 Noroeste 39 Oeste 0 -- -- 28
2019-06-04 16:00:00 30.1 11 Noroeste 21 Noroeste 0 -- -- 32
2019-06-04 15:00:00 28.8 6 Nordeste 18 Nordeste 0 -- -- 32
2019-06-04 14:00:00 27.8 5 Norte 13 Nordeste 0 -- -- 34
2019-06-04 13:00:00 25.5 6 Nordeste 13 Este 0 -- -- 39
2019-06-04 12:00:00 23.5 5 Nordeste 14 Este 0 -- -- 44
2019-06-04 11:00:00 21.5 5 Este 15 Nordeste 0 -- -- 47
2019-06-04 10:00:00 20.1 6 Este 15 Sudeste 0 -- -- 51
2019-06-04 09:00:00 17.7 2 Este 9 Nordeste 0 -- -- 61
2019-06-04 08:00:00 16.2 0 Calma 6 Sur 0 -- -- 73
2019-06-04 07:00:00 15.8 0 Calma 8 Sudeste 0 -- -- 74
2019-06-04 06:00:00 15.9 6 Sudeste 10 Sudeste 0 -- -- 64
2019-06-04 05:00:00 16.1 3 Sudeste 9 Este 0 -- -- 69
2019-06-04 04:00:00 16 0 Calma 4 Oeste 0 -- -- 79
2019-06-04 03:00:00 17.1 2 Oeste 4 Sur 0 -- -- 77
2019-06-04 02:00:00 18.6 3 Oeste 6 Oeste 0 -- -- 71
2019-06-04 01:00:00 20 0 Calma 14 Oeste 0 -- -- 66
2019-06-04 00:00:00 21.9 8 Oeste 20 Oeste 0 -- -- 59
2019-06-03 23:00:00 24.8 6 Sudoeste 10 Sudoeste 0 -- -- 43
2019-06-03 22:00:00 27.1 2 Noroeste 18 Este 0 -- -- 39
2019-06-03 21:00:00 28.8 11 Este 28 Este 0 -- -- 32
2019-06-03 20:00:00 30.5 13 Este 23 Este 0 -- -- 28
2019-06-03 19:00:00 30.8 7 Este 18 Sudeste 0 -- -- 26
2019-06-03 18:00:00 31.3 8 Este 18 Este 0 -- -- 26
2019-06-03 17:00:00 31.1 10 Este 23 Este 0 -- -- 27
2019-06-03 16:00:00 30.4 12 Este 25 Este 0 -- -- 29
2019-06-03 15:00:00 29 10 Este 19 Este 0 -- -- 31
2019-06-03 14:00:00 27.3 8 Este 22 Nordeste 0 -- -- 33
2019-06-03 13:00:00 25.8 10 Este 19 Este 0 -- -- 39
2019-06-03 12:00:00 24.2 4 Nordeste 10 Este 0 -- -- 42
2019-06-03 11:00:00 21.4 5 Noroeste 12 Oeste 0 -- -- 49
2019-06-03 10:00:00 18.4 5 Noroeste 14 Oeste 0 -- -- 56
2019-06-03 09:00:00 17 4 Noroeste 9 Noroeste 0 -- -- 62
2019-06-03 08:00:00 16.4 4 Sudoeste 11 Sudoeste 0 -- -- 62
2019-06-03 07:00:00 16.2 6 Sudoeste 12 Oeste 0 -- -- 64
2019-06-03 06:00:00 16.4 6 Oeste 17 Sudoeste 0 -- -- 59
2019-06-03 05:00:00 16.6 5 Oeste 9 Oeste 0 -- -- 62
2019-06-03 04:00:00 17.7 5 Oeste 12 Oeste 0 -- -- 57
2019-06-03 03:00:00 18.3 5 Sudoeste 17 Oeste 0 -- -- 55
2019-06-03 02:00:00 19.6 9 Oeste 15 Oeste 0 -- -- 51
2019-06-03 01:00:00 20.4 9 Sudoeste 19 Oeste 0 -- -- 49
2019-06-03 00:00:00 21.1 8 Sudoeste 26 Sudoeste 0 -- -- 49
2019-06-02 23:00:00 22.8 10 Sudoeste 23 Sudoeste 0 -- -- 51
2019-06-02 22:00:00 25.9 6 Sudoeste 18 Oeste 0 -- -- 44
2019-06-02 21:00:00 29.8 11 Oeste 19 Oeste 0 -- -- 39
2019-06-02 20:00:00 31 2 Noroeste 7 Nordeste 0 -- -- 35
2019-06-02 19:00:00 31.5 6 Este 17 Este 0 -- -- 27
2019-06-02 18:00:00 32 8 Este 17 Este 0 -- -- 26
2019-06-02 17:00:00 31.8 10 Este 22 Este 0 -- -- 28
2019-06-02 16:00:00 31.2 9 Este 22 Sudeste 0 -- -- 28
2019-06-02 15:00:00 29.9 9 Este 23 Este 0 -- -- 29
2019-06-02 14:00:00 27.9 10 Este 22 Este 0 -- -- 34
2019-06-02 13:00:00 26.5 10 Este 21 Este 0 -- -- 34
2019-06-02 12:00:00 24.7 11 Este 26 Este 0 -- -- 38
2019-06-02 11:00:00 23.1 12 Este 22 Este 0 -- -- 41
2019-06-02 10:00:00 21.3 12 Este 21 Este 0 -- -- 45
2019-06-02 09:00:00 20.1 6 Este 12 Este 0 -- -- 50
2019-06-02 08:00:00 18.9 4 Sudeste 14 Este 0 -- -- 54
2019-06-02 07:00:00 17.5 4 Sudeste 26 Este 0 -- -- 58
2019-06-02 06:00:00 18.4 8 Sudeste 18 Este 0 -- -- 55
2019-06-02 05:00:00 19 9 Este 23 Sudeste 0 -- -- 53
2019-06-02 04:00:00 19.7 12 Este 25 Este 0 -- -- 48
2019-06-02 03:00:00 19.5 4 Nordeste 19 Este 0 -- -- 49
2019-06-02 02:00:00 20.1 2 Este 6 Sudoeste 0 -- -- 47
2019-06-02 01:00:00 21.9 4 Sudeste 6 Sur 0 -- -- 42
2019-06-02 00:00:00 22.6 0 Calma 8 Sudeste 0 -- -- 41
2019-06-01 23:00:00 25.1 6 Este 14 Este 0 -- -- 34
2019-06-01 22:00:00 27.7 7 Este 22 Este 0 -- -- 27
2019-06-01 21:00:00 29.8 12 Este 22 Este 0 -- -- 25
2019-06-01 20:00:00 31 9 Este 21 Este 0 -- -- 23
2019-06-01 19:00:00 31.6 11 Este 25 Este 0 -- -- 23
2019-06-01 18:00:00 31.8 10 Este 23 Este 0 -- -- 25
2019-06-01 17:00:00 31.2 11 Este 22 Este 0 -- -- 26
2019-06-01 16:00:00 30.2 12 Este 24 Este 0 -- -- 28
2019-06-01 15:00:00 29 13 Este 24 Este 0 -- -- 29
2019-06-01 14:00:00 27.3 12 Este 26 Este 0 -- -- 35
2019-06-01 13:00:00 25.6 12 Este 28 Este 0 -- -- 39
2019-06-01 12:00:00 23.6 15 Este 28 Sudeste 0 -- -- 45
2019-06-01 11:00:00 21.8 11 Este 21 Sudeste 0 -- -- 51
2019-06-01 10:00:00 19.9 10 Este 20 Este 0 -- -- 58
2019-06-01 09:00:00 16.5 3 Noroeste 5 Oeste 0 -- -- 69
2019-06-01 08:00:00 14.3 3 Oeste 7 Noroeste 0 -- -- 74
2019-06-01 07:00:00 11.3 0 Calma 6 Oeste 0 -- -- 84
2019-06-01 06:00:00 12 3 Oeste 6 Sudoeste 0 -- -- 80
2019-06-01 05:00:00 13 0 Calma 4 Oeste 0 -- -- 74
2019-06-01 04:00:00 14.4 3 Oeste 7 Oeste 0 -- -- 69
2019-06-01 03:00:00 15.5 3 Sudoeste 10 Sudoeste 0 -- -- 69
2019-06-01 02:00:00 16.7 8 Sudoeste 10 Sudoeste 0 -- -- 57
2019-06-01 01:00:00 17.9 3 Sudoeste 8 Sudoeste 0 -- -- 59
2019-06-01 00:00:00 20.2 3 Sudoeste 6 Sur 0 -- -- 45
2019-05-31 23:00:00 22.9 2 Sur 6 Sudeste 0 -- -- 38
2019-05-31 22:00:00 26.1 2 Sudoeste 12 Este 0 -- -- 32
2019-05-31 21:00:00 28.3 8 Sudeste 18 Este 0 -- -- 24
2019-05-31 20:00:00 29.4 8 Sudeste 19 Este 0 -- -- 23
2019-05-31 19:00:00 30.2 9 Este 21 Este 0 -- -- 21
2019-05-31 18:00:00 30.7 10 Este 23 Este 0 -- -- 21
2019-05-31 17:00:00 30.4 10 Este 26 Este 0 -- -- 21
2019-05-31 16:00:00 29.7 9 Este 22 Este 0 -- -- 23
2019-05-31 15:00:00 28.5 9 Este 23 Este 0 -- -- 29
2019-05-31 14:00:00 27.1 11 Este 21 Este 0 -- -- 31
2019-05-31 13:00:00 25.3 10 Este 19 Sudeste 0 -- -- 38
2019-05-31 12:00:00 23.6 5 Este 14 Este 0 -- -- 45
2019-05-31 11:00:00 20.4 4 Norte 9 Norte 0 -- -- 57
2019-05-31 10:00:00 17.7 4 Noroeste 8 Noroeste 0 -- -- 66
2019-05-31 09:00:00 14.9 3 Noroeste 9 Oeste 0 -- -- 75
2019-05-31 08:00:00 13.2 5 Noroeste 8 Oeste 0 -- -- 82
2019-05-31 07:00:00 11.2 3 Noroeste 9 Noroeste 0 -- -- 89
2019-05-31 06:00:00 11.8 2 Oeste 10 Oeste 0 -- -- 86
2019-05-31 05:00:00 12.2 3 Oeste 5 Oeste 0 -- -- 85
2019-05-31 04:00:00 13.2 3 Oeste 5 Sudoeste 0 -- -- 81
2019-05-31 03:00:00 14.4 3 Oeste 6 Oeste 0 -- -- 75
2019-05-31 02:00:00 16 0 Calma 6 Sudoeste 0 -- -- 70
2019-05-31 01:00:00 17.5 2 Oeste 8 Sudoeste 0 -- -- 64
2019-05-31 00:00:00 19.3 3 Sudoeste 12 Sudoeste 0 -- -- 59
2019-05-30 23:00:00 20.9 8 Sudoeste 12 Sudoeste 0 -- -- 54
2019-05-30 22:00:00 23.3 0 Calma 17 Noroeste 0 -- -- 46
2019-05-30 21:00:00 25.2 7 Norte 23 Norte 0 -- -- 39
2019-05-30 20:00:00 26.6 10 Norte 22 Norte 0 -- -- 33
2019-05-30 19:00:00 28.8 7 Noroeste 18 Oeste 0 -- -- 30
2019-05-30 18:00:00 29.4 5 Noroeste 15 Oeste 0 -- -- 30
2019-05-30 17:00:00 29.2 10 Oeste 16 Oeste 0 -- -- 32
2019-05-30 16:00:00 27.8 4 Sudeste 16 Oeste 0 -- -- 32
2019-05-30 15:00:00 26.6 8 Noroeste 15 Oeste 0 -- -- 36
2019-05-30 14:00:00 25 6 Oeste 20 Oeste 0 -- -- 36
2019-05-30 13:00:00 23.6 9 Oeste 17 Oeste 0 -- -- 42
2019-05-30 12:00:00 21.3 9 Oeste 19 Oeste 0 -- -- 47
2019-05-30 11:00:00 18.6 9 Oeste 19 Oeste 0 -- -- 57
2019-05-30 10:00:00 16 11 Oeste 17 Oeste 0 -- -- 65
2019-05-30 09:00:00 13.4 6 Oeste 12 Oeste 0 -- -- 73
2019-05-30 08:00:00 10.4 6 Oeste 10 Oeste 0 -- -- 82
2019-05-30 07:00:00 7.6 4 Oeste 8 Oeste 0 -- -- 93
2019-05-30 06:00:00 8.1 5 Oeste 10 Oeste 0 -- -- 91
2019-05-30 05:00:00 8.9 7 Oeste 13 Noroeste 0 -- -- 89
2019-05-30 04:00:00 9.6 6 Oeste 10 Oeste 0 -- -- 87
2019-05-30 03:00:00 10.4 4 Oeste 7 Oeste 0 -- -- 84
2019-05-30 02:00:00 11.8 4 Oeste 21 Sudoeste 0 -- -- 78
2019-05-30 01:00:00 12.3 9 Sudoeste 21 Sudoeste 0 -- -- 76
2019-05-30 00:00:00 13.5 5 Oeste 15 Oeste 0 -- -- 71
2019-05-29 23:00:00 14.3 3 Sudoeste 11 Sur 0 -- -- 67
2019-05-29 22:00:00 15.2 4 Noroeste 19 Noroeste 0 -- -- 64
2019-05-29 21:00:00 17.1 9 Noroeste 21 Noroeste 0 -- -- 57
2019-05-29 20:00:00 18 11 Noroeste 20 Norte 0 -- -- 54
2019-05-29 19:00:00 19.4 9 Noroeste 24 Oeste 0 -- -- 51
2019-05-29 18:00:00 19.1 14 Noroeste 31 Oeste 0 -- -- 52
2019-05-29 17:00:00 19.4 16 Oeste 29 Noroeste 0 -- -- 53
2019-05-29 16:00:00 17.4 15 Noroeste 26 Oeste 0 -- -- 55
2019-05-29 15:00:00 16.5 12 Oeste 25 Oeste 0 -- -- 61
2019-05-29 14:00:00 15.4 12 Oeste 22 Oeste 0 -- -- 64
2019-05-29 13:00:00 13.3 12 Oeste 23 Oeste 0 -- -- 75
2019-05-29 12:00:00 12.8 12 Oeste 24 Oeste 0 -- -- 75
2019-05-29 11:00:00 12.2 9 Oeste 22 Oeste 0 -- -- 76
2019-05-29 10:00:00 12.4 13 Oeste 23 Oeste 0 -- -- 73
2019-05-29 09:00:00 12.2 13 Oeste 25 Noroeste 0 -- -- 71
2019-05-29 08:00:00 11.8 12 Oeste 22 Oeste 0 -- -- 71
2019-05-29 07:00:00 11.4 9 Oeste 15 Oeste 0 -- -- 73
2019-05-29 06:00:00 11.1 5 Oeste 16 Sudoeste 0 -- -- 75
2019-05-29 05:00:00 10.8 6 Sudoeste 22 Oeste 0 -- -- 78
2019-05-29 04:00:00 11 6 Oeste 15 Oeste 0 -- -- 79
2019-05-29 03:00:00 11.5 8 Noroeste 17 Noroeste 0 -- -- 72
2019-05-29 02:00:00 11.8 9 Oeste 18 Oeste 0 -- -- 70
2019-05-29 01:00:00 11.7 7 Oeste 14 Sudoeste 0 -- -- 69
2019-05-29 00:00:00 11.7 7 Oeste 19 Noroeste 0 -- -- 67
2019-05-28 23:00:00 11.9 8 Noroeste 25 Noroeste 0 -- -- 65
2019-05-28 22:00:00 12.7 14 Noroeste 29 Noroeste 0 -- -- 62
2019-05-28 21:00:00 14.1 12 Noroeste 36 Noroeste 0 -- -- 57
2019-05-28 20:00:00 15.4 16 Noroeste 31 Oeste 0 -- -- 53
2019-05-28 19:00:00 15.8 17 Noroeste 34 Oeste 0 -- -- 52
2019-05-28 18:00:00 15.9 17 Noroeste 34 Norte 0 -- -- 53
2019-05-28 17:00:00 16 16 Noroeste 31 Norte 0 -- -- 52
2019-05-28 16:00:00 15 15 Noroeste 40 Noroeste 0 -- -- 60
2019-05-28 15:00:00 15.4 17 Noroeste 30 Oeste 0 -- -- 56
2019-05-28 14:00:00 15.9 18 Oeste 32 Noroeste 0 -- -- 57
2019-05-28 13:00:00 14.2 17 Noroeste 28 Noroeste 0 -- -- 64
2019-05-28 12:00:00 13.7 13 Noroeste 28 Noroeste 0 -- -- 63
2019-05-28 11:00:00 13.6 10 Noroeste 23 Oeste 0 -- -- 59
2019-05-28 10:00:00 13.7 14 Oeste 27 Oeste 0 -- -- 56
2019-05-28 09:00:00 13.4 14 Oeste 25 Oeste 0 -- -- 63
2019-05-28 08:00:00 11 12 Sudoeste 23 Oeste 0 -- -- 72
2019-05-28 07:00:00 10.3 8 Oeste 20 Oeste 0 -- -- 77
2019-05-28 06:00:00 10.4 8 Oeste 18 Oeste 0 -- -- 78
2019-05-28 05:00:00 10.4 8 Oeste 18 Sudoeste 0 -- -- 77
2019-05-28 04:00:00 10.7 10 Oeste 24 Noroeste 0 -- -- 72
2019-05-28 03:00:00 11.2 15 Noroeste 36 Oeste 0 -- -- 67
2019-05-28 02:00:00 11.8 17 Noroeste 29 Noroeste 0 -- -- 65
2019-05-28 01:00:00 12.2 14 Oeste 27 Noroeste 0 -- -- 71
2019-05-28 00:00:00 13 15 Noroeste 31 Noroeste 0 -- -- 65